Butler, South Dakota
Current Conditions -  °F | °C
As of 3:53 AM on Friday 28 Nov 2014 (Local Time) from KABR Reporting Station
Clear Clear  
Wind Chill: -2°   Ceiling: Unl
Heat Index:   Visibility: 10mi
Dew Point:   Wind: 7mph
Humidity: 84%   Direction: 50°NE
Pressure: 29.88"   Gusts: NA
Location:  45.2657°N, 97.7493°W
Report Text: KABR 280953Z AUTO 05006KT 10SM CLR M13/M15 A2988 RMK AO2 SLP144 T11281150 $
Loading
Personal Weather Stations






























Interactive Weather Map New forecast layout! Learn more

10-Day Weather Forecast

Advertisements
Track Severe Weather on mobile